sensor_id;sensor_type;location;lat;lon;timestamp;temperature;humidity
31967;DHT22;18496;52.042;6.812;2023-01-15T00:01:23;9.60;99.90
31967;DHT22;18496;52.042;6.812;2023-01-15T00:03:27;9.50;99.90
31967;DHT22;18496;52.042;6.812;2023-01-15T00:05:34;9.60;99.90
31967;DHT22;18496;52.042;6.812;2023-01-15T00:07:37;9.60;99.90
31967;DHT22;18496;52.042;6.812;2023-01-15T00:09:41;9.60;99.90
31967;DHT22;18496;52.042;6.812;2023-01-15T00:11:45;9.50;99.90
31967;DHT22;18496;52.042;6.812;2023-01-15T00:13:48;9.50;99.90
31967;DHT22;18496;52.042;6.812;2023-01-15T00:15:52;9.50;99.90
31967;DHT22;18496;52.042;6.812;2023-01-15T00:17:56;9.50;99.90
31967;DHT22;18496;52.042;6.812;2023-01-15T00:19:59;9.50;99.90
31967;DHT22;18496;52.042;6.812;2023-01-15T00:22:03;9.50;99.90
31967;DHT22;18496;52.042;6.812;2023-01-15T00:24:07;9.50;99.90
31967;DHT22;18496;52.042;6.812;2023-01-15T00:26:30;9.50;99.90
31967;DHT22;18496;52.042;6.812;2023-01-15T00:28:52;9.50;99.90
31967;DHT22;18496;52.042;6.812;2023-01-15T00:30:55;9.50;99.90
31967;DHT22;18496;52.042;6.812;2023-01-15T00:32:59;9.50;99.90
31967;DHT22;18496;52.042;6.812;2023-01-15T00:35:02;9.50;99.90
31967;DHT22;18496;52.042;6.812;2023-01-15T00:37:06;9.50;99.90
31967;DHT22;18496;52.042;6.812;2023-01-15T00:39:10;9.50;99.90
31967;DHT22;18496;52.042;6.812;2023-01-15T00:41:13;9.50;99.90
31967;DHT22;18496;52.042;6.812;2023-01-15T00:43:17;9.50;99.90
31967;DHT22;18496;52.042;6.812;2023-01-15T00:45:21;9.50;99.90
31967;DHT22;18496;52.042;6.812;2023-01-15T00:47:25;9.50;99.90
31967;DHT22;18496;52.042;6.812;2023-01-15T00:49:29;9.50;99.90
31967;DHT22;18496;52.042;6.812;2023-01-15T00:51:32;9.50;99.90
31967;DHT22;18496;52.042;6.812;2023-01-15T00:53:36;9.50;99.90
31967;DHT22;18496;52.042;6.812;2023-01-15T00:55:39;9.50;99.90
31967;DHT22;18496;52.042;6.812;2023-01-15T00:57:43;9.50;99.90
31967;DHT22;18496;52.042;6.812;2023-01-15T00:59:46;9.50;99.90
31967;DHT22;18496;52.042;6.812;2023-01-15T01:01:53;9.40;99.90
31967;DHT22;18496;52.042;6.812;2023-01-15T01:03:56;9.40;99.90
31967;DHT22;18496;52.042;6.812;2023-01-15T01:06:00;9.40;99.90
31967;DHT22;18496;52.042;6.812;2023-01-15T01:08:04;9.40;99.90
31967;DHT22;18496;52.042;6.812;2023-01-15T01:10:08;9.40;99.90
31967;DHT22;18496;52.042;6.812;2023-01-15T01:12:12;9.40;99.90
31967;DHT22;18496;52.042;6.812;2023-01-15T01:14:16;9.40;99.90
31967;DHT22;18496;52.042;6.812;2023-01-15T01:18:34;9.40;99.90
31967;DHT22;18496;52.042;6.812;2023-01-15T01:20:37;9.40;99.90
31967;DHT22;18496;52.042;6.812;2023-01-15T01:22:42;9.40;99.90
31967;DHT22;18496;52.042;6.812;2023-01-15T01:24:46;9.40;99.90
31967;DHT22;18496;52.042;6.812;2023-01-15T01:26:49;9.30;99.90
31967;DHT22;18496;52.042;6.812;2023-01-15T01:28:54;9.30;99.90
31967;DHT22;18496;52.042;6.812;2023-01-15T01:30:58;9.30;99.90
31967;DHT22;18496;52.042;6.812;2023-01-15T01:33:01;9.30;99.90
31967;DHT22;18496;52.042;6.812;2023-01-15T01:35:05;9.20;99.90
31967;DHT22;18496;52.042;6.812;2023-01-15T01:37:08;9.20;99.90
31967;DHT22;18496;52.042;6.812;2023-01-15T01:39:13;9.20;99.90
31967;DHT22;18496;52.042;6.812;2023-01-15T01:41:18;9.20;99.90
31967;DHT22;18496;52.042;6.812;2023-01-15T01:43:24;9.20;99.90
31967;DHT22;18496;52.042;6.812;2023-01-15T01:45:34;9.20;99.90
31967;DHT22;18496;52.042;6.812;2023-01-15T01:47:37;9.20;99.90
31967;DHT22;18496;52.042;6.812;2023-01-15T01:49:41;9.20;99.90
31967;DHT22;18496;52.042;6.812;2023-01-15T01:51:46;9.10;99.90
31967;DHT22;18496;52.042;6.812;2023-01-15T01:53:52;9.10;99.90
31967;DHT22;18496;52.042;6.812;2023-01-15T01:55:56;9.10;99.90
31967;DHT22;18496;52.042;6.812;2023-01-15T01:57:59;9.20;99.90
31967;DHT22;18496;52.042;6.812;2023-01-15T02:00:04;9.10;99.90
31967;DHT22;18496;52.042;6.812;2023-01-15T02:02:17;9.10;99.90
31967;DHT22;18496;52.042;6.812;2023-01-15T02:04:23;9.10;99.90
31967;DHT22;18496;52.042;6.812;2023-01-15T02:06:27;9.10;99.90
31967;DHT22;18496;52.042;6.812;2023-01-15T02:08:31;9.10;99.90
31967;DHT22;18496;52.042;6.812;2023-01-15T02:10:35;9.00;99.90
31967;DHT22;18496;52.042;6.812;2023-01-15T02:12:39;9.00;99.90
31967;DHT22;18496;52.042;6.812;2023-01-15T02:17:35;9.00;99.90
31967;DHT22;18496;52.042;6.812;2023-01-15T02:19:47;9.00;99.90
31967;DHT22;18496;52.042;6.812;2023-01-15T02:26:25;9.00;99.90
31967;DHT22;18496;52.042;6.812;2023-01-15T02:28:32;9.00;99.90
31967;DHT22;18496;52.042;6.812;2023-01-15T02:30:39;9.00;99.90
31967;DHT22;18496;52.042;6.812;2023-01-15T02:32:45;9.00;99.90
31967;DHT22;18496;52.042;6.812;2023-01-15T02:34:54;8.90;99.90
31967;DHT22;18496;52.042;6.812;2023-01-15T02:37:01;8.90;99.90
31967;DHT22;18496;52.042;6.812;2023-01-15T02:39:06;8.90;99.90
31967;DHT22;18496;52.042;6.812;2023-01-15T02:41:11;8.90;99.90
31967;DHT22;18496;52.042;6.812;2023-01-15T02:43:20;8.90;99.90
31967;DHT22;18496;52.042;6.812;2023-01-15T02:45:26;8.90;99.90
31967;DHT22;18496;52.042;6.812;2023-01-15T02:47:36;8.90;99.90
31967;DHT22;18496;52.042;6.812;2023-01-15T02:49:42;8.90;99.90
31967;DHT22;18496;52.042;6.812;2023-01-15T02:51:52;8.90;99.90
31967;DHT22;18496;52.042;6.812;2023-01-15T02:54:00;8.90;99.90
31967;DHT22;18496;52.042;6.812;2023-01-15T02:56:14;8.80;99.90
31967;DHT22;18496;52.042;6.812;2023-01-15T02:58:24;8.80;99.90
31967;DHT22;18496;52.042;6.812;2023-01-15T03:00:30;8.80;99.90
31967;DHT22;18496;52.042;6.812;2023-01-15T03:02:39;8.80;99.90
31967;DHT22;18496;52.042;6.812;2023-01-15T03:05:01;8.70;99.90
31967;DHT22;18496;52.042;6.812;2023-01-15T03:07:24;8.70;99.90
31967;DHT22;18496;52.042;6.812;2023-01-15T03:09:30;8.70;99.90
31967;DHT22;18496;52.042;6.812;2023-01-15T03:11:35;8.70;99.90
31967;DHT22;18496;52.042;6.812;2023-01-15T03:15:54;8.70;99.90
31967;DHT22;18496;52.042;6.812;2023-01-15T03:18:16;8.70;99.90
31967;DHT22;18496;52.042;6.812;2023-01-15T03:20:27;8.70;99.90
31967;DHT22;18496;52.042;6.812;2023-01-15T03:22:32;8.70;99.90
31967;DHT22;18496;52.042;6.812;2023-01-15T03:24:41;8.70;99.90
31967;DHT22;18496;52.042;6.812;2023-01-15T03:26:47;8.70;99.90
31967;DHT22;18496;52.042;6.812;2023-01-15T03:28:50;8.70;99.90
31967;DHT22;18496;52.042;6.812;2023-01-15T03:30:54;8.70;99.90
31967;DHT22;18496;52.042;6.812;2023-01-15T03:32:58;8.60;99.90
31967;DHT22;18496;52.042;6.812;2023-01-15T03:35:03;8.60;99.90
31967;DHT22;18496;52.042;6.812;2023-01-15T03:37:08;8.60;99.90
31967;DHT22;18496;52.042;6.812;2023-01-15T03:39:13;8.60;99.90
31967;DHT22;18496;52.042;6.812;2023-01-15T03:44:33;8.60;99.90
31967;DHT22;18496;52.042;6.812;2023-01-15T03:48:54;8.50;99.90
31967;DHT22;18496;52.042;6.812;2023-01-15T03:51:03;8.50;99.90
31967;DHT22;18496;52.042;6.812;2023-01-15T03:53:17;8.50;99.90
31967;DHT22;18496;52.042;6.812;2023-01-15T03:59:52;8.40;99.90
31967;DHT22;18496;52.042;6.812;2023-01-15T04:01:57;8.40;99.90
31967;DHT22;18496;52.042;6.812;2023-01-15T04:04:03;8.40;99.90
31967;DHT22;18496;52.042;6.812;2023-01-15T04:06:07;8.40;99.90
31967;DHT22;18496;52.042;6.812;2023-01-15T04:08:13;8.40;99.90
31967;DHT22;18496;52.042;6.812;2023-01-15T04:10:18;8.50;99.90
31967;DHT22;18496;52.042;6.812;2023-01-15T04:12:24;8.40;99.90
31967;DHT22;18496;52.042;6.812;2023-01-15T04:14:33;8.40;99.90
31967;DHT22;18496;52.042;6.812;2023-01-15T04:16:42;8.40;99.90
31967;DHT22;18496;52.042;6.812;2023-01-15T04:18:48;8.40;99.90
31967;DHT22;18496;52.042;6.812;2023-01-15T04:20:51;8.40;99.90
31967;DHT22;18496;52.042;6.812;2023-01-15T04:22:56;8.40;99.90
31967;DHT22;18496;52.042;6.812;2023-01-15T04:25:01;8.50;99.90
31967;DHT22;18496;52.042;6.812;2023-01-15T04:27:04;8.50;99.90
31967;DHT22;18496;52.042;6.812;2023-01-15T04:29:08;8.40;99.90
31967;DHT22;18496;52.042;6.812;2023-01-15T04:31:11;8.40;99.90
31967;DHT22;18496;52.042;6.812;2023-01-15T04:33:15;8.40;99.90
31967;DHT22;18496;52.042;6.812;2023-01-15T04:35:19;8.40;99.90
31967;DHT22;18496;52.042;6.812;2023-01-15T04:37:22;8.40;99.90
31967;DHT22;18496;52.042;6.812;2023-01-15T04:39:26;8.40;99.90
31967;DHT22;18496;52.042;6.812;2023-01-15T04:41:29;8.40;99.90
31967;DHT22;18496;52.042;6.812;2023-01-15T04:43:52;8.40;99.90
31967;DHT22;18496;52.042;6.812;2023-01-15T04:46:10;8.40;99.90
31967;DHT22;18496;52.042;6.812;2023-01-15T04:48:14;8.40;99.90
31967;DHT22;18496;52.042;6.812;2023-01-15T04:50:18;8.40;99.90
31967;DHT22;18496;52.042;6.812;2023-01-15T04:52:21;8.40;99.90
31967;DHT22;18496;52.042;6.812;2023-01-15T04:54:25;8.40;99.90
31967;DHT22;18496;52.042;6.812;2023-01-15T04:56:28;8.40;99.90
31967;DHT22;18496;52.042;6.812;2023-01-15T04:58:32;8.40;99.90
31967;DHT22;18496;52.042;6.812;2023-01-15T05:00:36;8.40;99.90
31967;DHT22;18496;52.042;6.812;2023-01-15T05:02:40;8.40;99.90
31967;DHT22;18496;52.042;6.812;2023-01-15T05:04:43;8.40;99.90
31967;DHT22;18496;52.042;6.812;2023-01-15T05:06:47;8.40;99.90
31967;DHT22;18496;52.042;6.812;2023-01-15T05:08:51;8.40;99.90
31967;DHT22;18496;52.042;6.812;2023-01-15T05:10:55;8.40;99.90
31967;DHT22;18496;52.042;6.812;2023-01-15T05:12:58;8.30;99.90
31967;DHT22;18496;52.042;6.812;2023-01-15T05:15:02;8.30;99.90
31967;DHT22;18496;52.042;6.812;2023-01-15T05:17:06;8.30;99.90
31967;DHT22;18496;52.042;6.812;2023-01-15T05:19:10;8.30;99.90
31967;DHT22;18496;52.042;6.812;2023-01-15T05:21:17;8.30;99.90
31967;DHT22;18496;52.042;6.812;2023-01-15T05:23:21;8.30;99.90
31967;DHT22;18496;52.042;6.812;2023-01-15T05:25:25;8.30;99.90
31967;DHT22;18496;52.042;6.812;2023-01-15T05:27:29;8.30;99.90
31967;DHT22;18496;52.042;6.812;2023-01-15T05:29:33;8.30;99.90
31967;DHT22;18496;52.042;6.812;2023-01-15T05:31:36;8.20;99.90
31967;DHT22;18496;52.042;6.812;2023-01-15T05:33:40;8.30;99.90
31967;DHT22;18496;52.042;6.812;2023-01-15T05:35:44;8.30;99.90
31967;DHT22;18496;52.042;6.812;2023-01-15T05:37:48;8.30;99.90
31967;DHT22;18496;52.042;6.812;2023-01-15T05:39:51;8.30;99.90
31967;DHT22;18496;52.042;6.812;2023-01-15T05:41:55;8.30;99.90
31967;DHT22;18496;52.042;6.812;2023-01-15T05:43:59;8.30;99.90
31967;DHT22;18496;52.042;6.812;2023-01-15T05:46:03;8.30;99.90
31967;DHT22;18496;52.042;6.812;2023-01-15T05:48:07;8.30;99.90
31967;DHT22;18496;52.042;6.812;2023-01-15T05:50:11;8.30;99.90
31967;DHT22;18496;52.042;6.812;2023-01-15T05:52:14;8.30;99.90
31967;DHT22;18496;52.042;6.812;2023-01-15T05:54:19;8.30;99.90
31967;DHT22;18496;52.042;6.812;2023-01-15T05:56:23;8.30;99.90
31967;DHT22;18496;52.042;6.812;2023-01-15T05:58:27;8.30;99.90
31967;DHT22;18496;52.042;6.812;2023-01-15T06:00:30;8.30;99.90
31967;DHT22;18496;52.042;6.812;2023-01-15T06:02:34;8.30;99.90
31967;DHT22;18496;52.042;6.812;2023-01-15T06:04:37;8.20;99.90
31967;DHT22;18496;52.042;6.812;2023-01-15T06:06:41;8.30;99.90
31967;DHT22;18496;52.042;6.812;2023-01-15T06:08:45;8.20;99.90
31967;DHT22;18496;52.042;6.812;2023-01-15T06:10:48;8.20;99.90
31967;DHT22;18496;52.042;6.812;2023-01-15T06:12:52;8.20;99.90
31967;DHT22;18496;52.042;6.812;2023-01-15T06:14:55;8.20;99.90
31967;DHT22;18496;52.042;6.812;2023-01-15T06:16:59;8.20;99.90
31967;DHT22;18496;52.042;6.812;2023-01-15T06:19:03;8.20;99.90
31967;DHT22;18496;52.042;6.812;2023-01-15T06:21:08;8.20;99.90
31967;DHT22;18496;52.042;6.812;2023-01-15T06:23:12;8.20;99.90
31967;DHT22;18496;52.042;6.812;2023-01-15T06:25:16;8.20;99.90
31967;DHT22;18496;52.042;6.812;2023-01-15T06:27:19;8.20;99.90
31967;DHT22;18496;52.042;6.812;2023-01-15T06:29:23;8.20;99.90
31967;DHT22;18496;52.042;6.812;2023-01-15T06:31:26;8.20;99.90
31967;DHT22;18496;52.042;6.812;2023-01-15T06:33:30;8.20;99.90
31967;DHT22;18496;52.042;6.812;2023-01-15T06:35:34;8.20;99.90
31967;DHT22;18496;52.042;6.812;2023-01-15T06:37:37;8.20;99.90
31967;DHT22;18496;52.042;6.812;2023-01-15T06:39:41;8.20;99.90
31967;DHT22;18496;52.042;6.812;2023-01-15T06:41:44;8.20;99.90
31967;DHT22;18496;52.042;6.812;2023-01-15T06:44:09;8.20;99.90
31967;DHT22;18496;52.042;6.812;2023-01-15T06:46:32;8.10;99.90
31967;DHT22;18496;52.042;6.812;2023-01-15T06:48:54;8.10;99.90
31967;DHT22;18496;52.042;6.812;2023-01-15T06:50:57;8.10;99.90
31967;DHT22;18496;52.042;6.812;2023-01-15T06:53:01;8.10;99.90
31967;DHT22;18496;52.042;6.812;2023-01-15T06:55:05;8.00;99.90
31967;DHT22;18496;52.042;6.812;2023-01-15T06:57:09;8.10;99.90
31967;DHT22;18496;52.042;6.812;2023-01-15T06:59:12;8.00;99.90
31967;DHT22;18496;52.042;6.812;2023-01-15T07:01:16;8.00;99.90
31967;DHT22;18496;52.042;6.812;2023-01-15T07:03:20;8.00;99.90
31967;DHT22;18496;52.042;6.812;2023-01-15T07:05:23;8.10;99.90
31967;DHT22;18496;52.042;6.812;2023-01-15T07:07:27;8.10;99.90
31967;DHT22;18496;52.042;6.812;2023-01-15T07:09:31;8.10;99.90
31967;DHT22;18496;52.042;6.812;2023-01-15T07:11:35;8.00;99.90
31967;DHT22;18496;52.042;6.812;2023-01-15T07:13:38;8.00;99.90
31967;DHT22;18496;52.042;6.812;2023-01-15T07:15:42;8.10;99.90
31967;DHT22;18496;52.042;6.812;2023-01-15T07:17:45;8.00;99.90
31967;DHT22;18496;52.042;6.812;2023-01-15T07:19:49;8.00;99.90
31967;DHT22;18496;52.042;6.812;2023-01-15T07:21:53;8.00;99.90
31967;DHT22;18496;52.042;6.812;2023-01-15T07:24:00;8.00;99.90
31967;DHT22;18496;52.042;6.812;2023-01-15T07:26:04;8.00;99.90
31967;DHT22;18496;52.042;6.812;2023-01-15T07:28:07;8.00;99.90
31967;DHT22;18496;52.042;6.812;2023-01-15T07:30:11;8.00;99.90
31967;DHT22;18496;52.042;6.812;2023-01-15T07:32:14;7.90;99.90
31967;DHT22;18496;52.042;6.812;2023-01-15T07:34:18;7.90;99.90
31967;DHT22;18496;52.042;6.812;2023-01-15T07:36:22;7.90;99.90
31967;DHT22;18496;52.042;6.812;2023-01-15T07:38:26;7.90;99.90
31967;DHT22;18496;52.042;6.812;2023-01-15T07:40:30;7.90;99.90
31967;DHT22;18496;52.042;6.812;2023-01-15T07:42:33;7.90;99.90
31967;DHT22;18496;52.042;6.812;2023-01-15T07:44:55;7.90;99.90
31967;DHT22;18496;52.042;6.812;2023-01-15T07:47:21;7.80;99.90
31967;DHT22;18496;52.042;6.812;2023-01-15T07:49:43;7.90;99.90
31967;DHT22;18496;52.042;6.812;2023-01-15T07:51:50;7.90;99.90
31967;DHT22;18496;52.042;6.812;2023-01-15T07:53:54;7.80;99.90
31967;DHT22;18496;52.042;6.812;2023-01-15T07:55:57;7.80;99.90
31967;DHT22;18496;52.042;6.812;2023-01-15T07:58:01;7.80;99.90
31967;DHT22;18496;52.042;6.812;2023-01-15T08:00:05;7.80;99.90
31967;DHT22;18496;52.042;6.812;2023-01-15T08:02:15;7.80;99.90
31967;DHT22;18496;52.042;6.812;2023-01-15T08:04:19;7.80;99.90
31967;DHT22;18496;52.042;6.812;2023-01-15T08:06:23;7.80;99.90
31967;DHT22;18496;52.042;6.812;2023-01-15T08:08:26;7.90;99.90
31967;DHT22;18496;52.042;6.812;2023-01-15T08:10:30;7.90;99.90
31967;DHT22;18496;52.042;6.812;2023-01-15T08:12:33;7.80;99.90
31967;DHT22;18496;52.042;6.812;2023-01-15T08:14:55;7.80;99.90
31967;DHT22;18496;52.042;6.812;2023-01-15T08:17:18;7.80;99.90
31967;DHT22;18496;52.042;6.812;2023-01-15T08:19:22;7.80;99.90
31967;DHT22;18496;52.042;6.812;2023-01-15T08:21:27;7.80;99.90
31967;DHT22;18496;52.042;6.812;2023-01-15T08:23:31;7.70;99.90
31967;DHT22;18496;52.042;6.812;2023-01-15T08:25:34;7.70;99.90
31967;DHT22;18496;52.042;6.812;2023-01-15T08:27:38;7.70;99.90
31967;DHT22;18496;52.042;6.812;2023-01-15T08:29:42;7.70;99.90
31967;DHT22;18496;52.042;6.812;2023-01-15T08:31:46;7.70;99.90
31967;DHT22;18496;52.042;6.812;2023-01-15T08:33:50;7.70;99.90
31967;DHT22;18496;52.042;6.812;2023-01-15T08:35:53;7.70;99.90
31967;DHT22;18496;52.042;6.812;2023-01-15T08:37:57;7.70;99.90
31967;DHT22;18496;52.042;6.812;2023-01-15T08:40:00;7.70;99.90
31967;DHT22;18496;52.042;6.812;2023-01-15T08:42:04;7.70;99.90
31967;DHT22;18496;52.042;6.812;2023-01-15T08:44:08;7.70;99.90
31967;DHT22;18496;52.042;6.812;2023-01-15T08:46:12;7.70;99.90
31967;DHT22;18496;52.042;6.812;2023-01-15T08:48:16;7.70;99.90
31967;DHT22;18496;52.042;6.812;2023-01-15T08:50:19;7.70;99.90
31967;DHT22;18496;52.042;6.812;2023-01-15T08:52:23;7.70;99.90
31967;DHT22;18496;52.042;6.812;2023-01-15T08:54:26;7.70;99.90
31967;DHT22;18496;52.042;6.812;2023-01-15T08:56:30;7.70;99.90
31967;DHT22;18496;52.042;6.812;2023-01-15T08:58:34;7.70;99.90
31967;DHT22;18496;52.042;6.812;2023-01-15T09:00:37;7.70;99.90
31967;DHT22;18496;52.042;6.812;2023-01-15T09:02:41;7.70;99.90
31967;DHT22;18496;52.042;6.812;2023-01-15T09:04:44;7.70;99.90
31967;DHT22;18496;52.042;6.812;2023-01-15T09:06:48;7.70;99.90
31967;DHT22;18496;52.042;6.812;2023-01-15T09:08:51;7.70;99.90
31967;DHT22;18496;52.042;6.812;2023-01-15T09:10:56;7.70;99.90
31967;DHT22;18496;52.042;6.812;2023-01-15T09:13:00;7.70;99.90
31967;DHT22;18496;52.042;6.812;2023-01-15T09:15:04;7.70;99.90
31967;DHT22;18496;52.042;6.812;2023-01-15T09:17:08;7.80;99.90
31967;DHT22;18496;52.042;6.812;2023-01-15T09:19:11;7.80;99.90
31967;DHT22;18496;52.042;6.812;2023-01-15T09:21:15;7.90;99.90
31967;DHT22;18496;52.042;6.812;2023-01-15T09:23:18;7.90;99.90
31967;DHT22;18496;52.042;6.812;2023-01-15T09:25:22;7.90;99.90
31967;DHT22;18496;52.042;6.812;2023-01-15T09:27:27;7.90;99.90
31967;DHT22;18496;52.042;6.812;2023-01-15T09:29:31;7.90;99.90
31967;DHT22;18496;52.042;6.812;2023-01-15T09:31:34;7.90;99.90
31967;DHT22;18496;52.042;6.812;2023-01-15T09:33:38;7.90;99.90
31967;DHT22;18496;52.042;6.812;2023-01-15T09:35:41;7.90;99.90
31967;DHT22;18496;52.042;6.812;2023-01-15T09:37:49;7.90;99.90
31967;DHT22;18496;52.042;6.812;2023-01-15T09:39:52;8.00;99.90
31967;DHT22;18496;52.042;6.812;2023-01-15T09:46:29;8.00;99.90
31967;DHT22;18496;52.042;6.812;2023-01-15T09:50:47;8.10;99.90
31967;DHT22;18496;52.042;6.812;2023-01-15T09:57:12;8.10;99.90
31967;DHT22;18496;52.042;6.812;2023-01-15T09:59:30;8.00;99.90
31967;DHT22;18496;52.042;6.812;2023-01-15T10:01:34;8.00;99.90
31967;DHT22;18496;52.042;6.812;2023-01-15T10:03:46;8.00;99.90
31967;DHT22;18496;52.042;6.812;2023-01-15T10:07:59;8.00;99.90
31967;DHT22;18496;52.042;6.812;2023-01-15T10:10:08;8.00;99.90
31967;DHT22;18496;52.042;6.812;2023-01-15T10:12:15;8.10;99.90
31967;DHT22;18496;52.042;6.812;2023-01-15T10:14:48;8.10;99.90
31967;DHT22;18496;52.042;6.812;2023-01-15T10:16:54;8.10;99.90
31967;DHT22;18496;52.042;6.812;2023-01-15T10:18:57;8.10;99.90
31967;DHT22;18496;52.042;6.812;2023-01-15T10:21:25;8.10;99.90
31967;DHT22;18496;52.042;6.812;2023-01-15T10:23:46;8.10;99.90
31967;DHT22;18496;52.042;6.812;2023-01-15T10:26:12;8.10;99.90
31967;DHT22;18496;52.042;6.812;2023-01-15T10:28:29;8.10;99.90
31967;DHT22;18496;52.042;6.812;2023-01-15T10:30:38;8.10;99.90
31967;DHT22;18496;52.042;6.812;2023-01-15T10:32:45;8.10;99.90
31967;DHT22;18496;52.042;6.812;2023-01-15T10:39:23;8.10;99.90
31967;DHT22;18496;52.042;6.812;2023-01-15T10:43:47;8.20;99.90
31967;DHT22;18496;52.042;6.812;2023-01-15T10:48:01;8.30;99.90
31967;DHT22;18496;52.042;6.812;2023-01-15T10:52:24;8.40;99.90
31967;DHT22;18496;52.042;6.812;2023-01-15T10:54:42;8.40;99.90
31967;DHT22;18496;52.042;6.812;2023-01-15T10:56:52;8.40;99.90
31967;DHT22;18496;52.042;6.812;2023-01-15T10:59:03;8.40;99.90
31967;DHT22;18496;52.042;6.812;2023-01-15T11:01:15;8.50;99.90
31967;DHT22;18496;52.042;6.812;2023-01-15T11:03:20;8.50;99.90
31967;DHT22;18496;52.042;6.812;2023-01-15T11:05:24;8.50;99.90
31967;DHT22;18496;52.042;6.812;2023-01-15T11:07:50;8.50;99.90
31967;DHT22;18496;52.042;6.812;2023-01-15T11:09:52;8.50;99.90
31967;DHT22;18496;52.042;6.812;2023-01-15T11:12:00;8.50;99.90
31967;DHT22;18496;52.042;6.812;2023-01-15T11:14:06;8.50;99.90
31967;DHT22;18496;52.042;6.812;2023-01-15T11:16:28;8.50;99.90
31967;DHT22;18496;52.042;6.812;2023-01-15T11:18:50;8.50;99.90
31967;DHT22;18496;52.042;6.812;2023-01-15T11:21:14;8.60;99.90
31967;DHT22;18496;52.042;6.812;2023-01-15T11:23:19;8.50;99.90
31967;DHT22;18496;52.042;6.812;2023-01-15T11:25:29;8.60;99.90
31967;DHT22;18496;52.042;6.812;2023-01-15T11:27:33;8.60;99.90
31967;DHT22;18496;52.042;6.812;2023-01-15T11:29:37;8.60;99.90
31967;DHT22;18496;52.042;6.812;2023-01-15T11:31:41;8.60;99.90
31967;DHT22;18496;52.042;6.812;2023-01-15T11:33:55;8.60;99.90
31967;DHT22;18496;52.042;6.812;2023-01-15T11:36:01;8.60;99.90
31967;DHT22;18496;52.042;6.812;2023-01-15T11:38:14;8.60;99.90
31967;DHT22;18496;52.042;6.812;2023-01-15T11:40:19;8.60;99.90
31967;DHT22;18496;52.042;6.812;2023-01-15T11:42:23;8.60;99.90
31967;DHT22;18496;52.042;6.812;2023-01-15T11:44:52;8.60;99.90
31967;DHT22;18496;52.042;6.812;2023-01-15T11:47:16;8.60;99.90
31967;DHT22;18496;52.042;6.812;2023-01-15T11:49:39;8.60;99.90
31967;DHT22;18496;52.042;6.812;2023-01-15T11:52:01;8.60;99.90
31967;DHT22;18496;52.042;6.812;2023-01-15T11:54:07;8.60;99.90
31967;DHT22;18496;52.042;6.812;2023-01-15T11:56:13;8.60;99.90
31967;DHT22;18496;52.042;6.812;2023-01-15T11:58:18;8.70;99.90
31967;DHT22;18496;52.042;6.812;2023-01-15T12:00:25;8.70;99.90
31967;DHT22;18496;52.042;6.812;2023-01-15T12:04:50;8.70;99.90
31967;DHT22;18496;52.042;6.812;2023-01-15T12:06:58;8.70;99.90
31967;DHT22;18496;52.042;6.812;2023-01-15T12:09:09;8.70;99.90
31967;DHT22;18496;52.042;6.812;2023-01-15T12:13:52;8.70;99.90
31967;DHT22;18496;52.042;6.812;2023-01-15T12:16:21;8.70;99.90
31967;DHT22;18496;52.042;6.812;2023-01-15T12:18:32;8.70;99.90
31967;DHT22;18496;52.042;6.812;2023-01-15T12:29:45;8.70;99.90
31967;DHT22;18496;52.042;6.812;2023-01-15T12:31:55;8.70;99.90
31967;DHT22;18496;52.042;6.812;2023-01-15T12:38:21;8.70;99.90
31967;DHT22;18496;52.042;6.812;2023-01-15T12:40:28;8.70;99.90
31967;DHT22;18496;52.042;6.812;2023-01-15T12:42:33;8.70;99.90
31967;DHT22;18496;52.042;6.812;2023-01-15T12:45:03;8.70;99.90
31967;DHT22;18496;52.042;6.812;2023-01-15T12:47:11;8.70;99.90
31967;DHT22;18496;52.042;6.812;2023-01-15T12:49:29;8.70;99.90
31967;DHT22;18496;52.042;6.812;2023-01-15T12:51:39;8.70;99.90
31967;DHT22;18496;52.042;6.812;2023-01-15T12:53:47;8.70;99.90
31967;DHT22;18496;52.042;6.812;2023-01-15T12:58:20;8.70;99.90
31967;DHT22;18496;52.042;6.812;2023-01-15T13:00:32;8.70;99.90
31967;DHT22;18496;52.042;6.812;2023-01-15T13:06:49;8.70;99.90
31967;DHT22;18496;52.042;6.812;2023-01-15T13:09:00;8.70;99.90
31967;DHT22;18496;52.042;6.812;2023-01-15T13:11:04;8.80;99.90
31967;DHT22;18496;52.042;6.812;2023-01-15T13:13:13;8.70;99.90
31967;DHT22;18496;52.042;6.812;2023-01-15T13:15:19;8.70;99.90
31967;DHT22;18496;52.042;6.812;2023-01-15T13:20:14;8.70;99.90
31967;DHT22;18496;52.042;6.812;2023-01-15T13:22:23;8.70;99.90
31967;DHT22;18496;52.042;6.812;2023-01-15T13:29:04;8.60;99.90
31967;DHT22;18496;52.042;6.812;2023-01-15T13:33:26;8.60;99.90
31967;DHT22;18496;52.042;6.812;2023-01-15T13:35:36;8.60;99.90
31967;DHT22;18496;52.042;6.812;2023-01-15T13:37:44;8.60;99.90
31967;DHT22;18496;52.042;6.812;2023-01-15T13:39:49;8.50;99.90
31967;DHT22;18496;52.042;6.812;2023-01-15T13:41:54;8.50;99.90
31967;DHT22;18496;52.042;6.812;2023-01-15T13:44:30;8.50;99.90
31967;DHT22;18496;52.042;6.812;2023-01-15T13:46:34;8.50;99.90
31967;DHT22;18496;52.042;6.812;2023-01-15T13:48:42;8.40;99.90
31967;DHT22;18496;52.042;6.812;2023-01-15T13:50:50;8.40;99.90
31967;DHT22;18496;52.042;6.812;2023-01-15T13:53:15;8.50;99.90
31967;DHT22;18496;52.042;6.812;2023-01-15T13:55:25;8.50;99.90
31967;DHT22;18496;52.042;6.812;2023-01-15T13:57:33;8.50;99.90
31967;DHT22;18496;52.042;6.812;2023-01-15T13:59:41;8.50;99.90
31967;DHT22;18496;52.042;6.812;2023-01-15T14:01:45;8.50;99.90
31967;DHT22;18496;52.042;6.812;2023-01-15T14:04:31;8.50;99.90
31967;DHT22;18496;52.042;6.812;2023-01-15T14:06:16;8.50;99.90
31967;DHT22;18496;52.042;6.812;2023-01-15T14:08:22;8.50;99.90
31967;DHT22;18496;52.042;6.812;2023-01-15T14:15:07;8.50;99.90
31967;DHT22;18496;52.042;6.812;2023-01-15T14:29:01;8.50;99.90
31967;DHT22;18496;52.042;6.812;2023-01-15T14:33:33;8.40;99.90
31967;DHT22;18496;52.042;6.812;2023-01-15T14:35:34;8.40;99.90
31967;DHT22;18496;52.042;6.812;2023-01-15T14:37:48;8.40;99.90
31967;DHT22;18496;52.042;6.812;2023-01-15T14:39:54;8.40;99.90
31967;DHT22;18496;52.042;6.812;2023-01-15T14:44:29;8.30;99.90
31967;DHT22;18496;52.042;6.812;2023-01-15T14:46:34;8.20;99.90
31967;DHT22;18496;52.042;6.812;2023-01-15T14:48:40;8.20;99.90
31967;DHT22;18496;52.042;6.812;2023-01-15T14:50:46;8.10;99.90
31967;DHT22;18496;52.042;6.812;2023-01-15T14:52:51;8.10;99.90
31967;DHT22;18496;52.042;6.812;2023-01-15T14:54:55;8.00;99.90
31967;DHT22;18496;52.042;6.812;2023-01-15T14:57:00;8.00;99.90
31967;DHT22;18496;52.042;6.812;2023-01-15T14:59:09;8.00;99.90
31967;DHT22;18496;52.042;6.812;2023-01-15T15:03:21;7.80;99.90
31967;DHT22;18496;52.042;6.812;2023-01-15T15:05:27;7.80;99.90
31967;DHT22;18496;52.042;6.812;2023-01-15T15:07:34;7.80;99.90
31967;DHT22;18496;52.042;6.812;2023-01-15T15:11:45;7.80;99.90
31967;DHT22;18496;52.042;6.812;2023-01-15T15:14:08;7.70;99.90
31967;DHT22;18496;52.042;6.812;2023-01-15T15:16:18;7.70;99.90
31967;DHT22;18496;52.042;6.812;2023-01-15T15:18:26;7.70;99.90
31967;DHT22;18496;52.042;6.812;2023-01-15T15:22:42;7.70;99.90